EDDBEGLL

Guest
Details From EDDB - Berlin Schoenefeld
To EGLL - London Heathrow
Flight Number -
Tags decoded
Created
Modified
Stats Distance 523 nm / 968 km
Max Altitude 0 ft / 0 m
Waypoints 10
Social Downloads 1
Likes 0
Share VATSIM

Download

Looking for another format? Having issues loading an existing format? Contact us
Advertisement - Login to hide

Notes

Requested: EDDB BELID Y203 HLZ GORLO UL980 LOGAN EGLL

Route

EDDB BELID Y203 HLZ GORLO UL980 LOGAN EGLL

ID Type Via Altitude Latitude Longitude Leg Dist Tot Dist Heading (true) Name
O EDDB APT - 0 ft / 0 m 52.37854˚ 13.52063˚ - 0 nm - Berlin Schoenefeld
BELID FIX - 0 ft / 0 m 52.24361˚ 12.69750˚ 31 nm 31 nm 255° / 255° -
GENTI FIX Y203 (AWY-LO) 0 ft / 0 m 52.33250˚ 12.34389˚ 14 nm 45 nm 292° / 292° -
BUREL FIX Y203 (AWY-LO) 0 ft / 0 m 52.34444˚ 11.85444˚ 17 nm 63 nm 272° / 272° -
HLZ VOR Y203 (AWY-LO) 0 ft / 0 m 52.36339˚ 10.79522˚ 38 nm 102 nm 272° / 271° HEHLINGEN VOR-DME
GORLO FIX - 0 ft / 0 m 51.92407˚ 3.17184˚ 282 nm 384 nm 268° / 262° -
REFSO FIX UL980 (AWY-HI) 0 ft / 0 m 51.80957˚ 2.66691˚ 19 nm 404 nm 250° / 250° -
XAMAN FIX UL980 (AWY-HI) 0 ft / 0 m 51.78476˚ 2.22423˚ 16 nm 420 nm 265° / 265° -
LOGAN FIX UL980 (AWY-HI) 0 ft / 0 m 51.74750˚ 1.61194˚ 22 nm 443 nm 265° / 264° -
O EGLL APT - 0 ft / 0 m 51.47122˚ -0.46098˚ 79 nm 522 nm 259° / 257° London Heathrow

Altitude Profile

Advertisement - Login to hide

Weather


0- 5 10 15 20 25 30 35+ Temperature / ° C

Clouds and Precipitation
Forecast for 2018-05-25 00:00 UTC. Updated 5 hours ago

Ground ~20,000 ft ~40,000 ft Winds

EDDB

Details ICAO EDDB (BER)
Name Berlin Schoenefeld
Region Germany - Civil
Timezone Europe/Berlin (UTC+2.0)
Stats Elevation 157 ft / 48 m (AMSL)
Location 52.378541° 13.520629°
Runways 2
Magnetic Variation 3.866° E

METAR

EDDB 250320Z 06009KT CAVOK 14/09 Q1021 NOSIG

Decode

TAF

TAF EDDB 242300Z 2500/2524 06009KT CAVOK= TAF EDDK 242300Z 2500/2606 11005KT CAVOK

Decode

Departure Runways

ID Width Length Bearing (true) Bearing (mag) Surface Threshold Offset Overrun Length
07 148 ft / 45 m 9,817 ft / 2,992 m 68.75° 64.88° Asphalt 0 ft / 0 m 984 ft / 300 m
07L 148 ft / 45 m 8,867 ft / 2,703 m 68.77° 64.90° Concrete 0 ft / 0 m 525 ft / 160 m
25 148 ft / 45 m 9,817 ft / 2,992 m 248.78° 244.91° Asphalt 0 ft / 0 m 984 ft / 300 m
25R 148 ft / 45 m 8,867 ft / 2,703 m 248.80° 244.93° Concrete 0 ft / 0 m 984 ft / 300 m

EGLL

Details ICAO EGLL (LHR)
Name London Heathrow
Region United Kingdom
Timezone Europe/London (UTC+1.0)
Stats Elevation 83 ft / 25 m (AMSL)
Location 51.471218° -0.460978°
Runways 2
Magnetic Variation 0.495° W

METAR

EGLL 250320Z AUTO VRB03KT 6000 -RA OVC007/// //////TCU 13/12 Q1017 NOSIG

Decode

TAF

TAF AMD EGLL 250357Z 2503/2606 VRB04KT 7000 BKN010 TEMPO 2503/2508 BKN006 PROB40 TEMPO 2503/2506 3000 RADZ BECMG 2509/2512 9999 SCT020 PROB30 TEMPO 2517/2520 7000 SHRA BECMG 2520/2523 04010KT TEMPO 2520/2606 7000 PROB30 TEMPO 2604/2606 4000 +SHRA BKN008 BKN048CB

Decode

Destination Runways

ID Width Length Bearing (true) Bearing (mag) Surface Threshold Offset Overrun Length
09L 164 ft / 50 m 12,811 ft / 3,905 m 89.64° 90.13° Asphalt 1,004 ft / 306 m 0 ft / 0 m
09R 164 ft / 50 m 12,019 ft / 3,663 m 89.67° 90.16° Asphalt 1,007 ft / 307 m 0 ft / 0 m
27L 164 ft / 50 m 12,019 ft / 3,663 m 269.71° 270.20° Asphalt 0 ft / 0 m 69 ft / 21 m
27R 164 ft / 50 m 12,811 ft / 3,905 m 269.69° 270.18° Asphalt 0 ft / 0 m 69 ft / 21 m

Approach Navaids

Runway Type Ident Frequency Range Bearing (true) Bearing (mag) Slope Elevation
09L Localiser IAA 110.30 MHz 18 nm / 33 km 89.69° 90.19° - 83 ft / 25 m (AMSL)
09L Glidescope IAA 110.30 MHz 10 nm / 19 km 89.67° 90.16° 3.00° 51 ft / 16 m (AMSL)
09L DME IAA 110.30 MHz 18 nm / 33 km - - - 89 ft / 27 m (AMSL)
09R Localiser IBB 109.50 MHz 18 nm / 33 km 89.73° 90.22° - 83 ft / 25 m (AMSL)
09R Glidescope IBB 109.50 MHz 10 nm / 19 km 89.69° 90.18° 3.00° 52 ft / 16 m (AMSL)
09R DME IBB 109.50 MHz 18 nm / 33 km - - - 84 ft / 26 m (AMSL)
27L Localiser ILL 109.50 MHz 18 nm / 33 km 269.67° 270.16° - 83 ft / 25 m (AMSL)
27L Glidescope ILL 109.50 MHz 10 nm / 19 km 269.69° 270.18° 3.00° 56 ft / 17 m (AMSL)
27L DME ILL 109.50 MHz 18 nm / 33 km - - - 84 ft / 26 m (AMSL)
27R Localiser IRR 110.30 MHz 18 nm / 33 km 269.66° 270.15° - 83 ft / 25 m (AMSL)
27R Glidescope IRR 110.30 MHz 10 nm / 19 km 269.67° 270.16° 3.00° 60 ft / 18 m (AMSL)
27R DME IRR 110.30 MHz 18 nm / 33 km - - - 89 ft / 27 m (AMSL)

Popular Alternatives